Time;durP1;ratioP1;P1;durP2;ratioP2;P2;SDS_P1;SDS_P2;PMS_P1;PMS_P2;Temp;Humidity;BMP_temperature;BMP_pressure;BME280_temperature;BME280_humidity;BME280_pressure;Samples;Min_cycle;Max_cycle;Signal;HPM_P1;HPM_P2
2022/05/24 00:01:28;;;;;;;11.70;10.47;;;;;;;;;;5011607;28;20437;-77
2022/05/24 00:03:57;;;;;;;11.47;10.27;;;;;;;;;;5012206;28;20509;-78
2022/05/24 00:06:26;;;;;;;10.77;9.67;;;;;;;;;;5013620;28;20492;-77
2022/05/24 00:08:53;;;;;;;11.27;10.27;;;;;;;;;;5016677;28;20402;-77
2022/05/24 00:11:20;;;;;;;14.73;11.90;;;;;;;;;;5013264;28;20443;-77
2022/05/24 00:13:48;;;;;;;12.20;10.17;;;;;;;;;;5010307;28;20418;-76
2022/05/24 00:16:15;;;;;;;12.13;10.93;;;;;;;;;;5010082;28;20459;-77
2022/05/24 00:18:42;;;;;;;10.90;9.90;;;;;;;;;;5010296;28;20872;-77
2022/05/24 00:21:11;;;;;;;11.27;10.17;;;;;;;;;;5010048;28;20447;-77
2022/05/24 00:23:38;;;;;;;11.20;10.10;;;;;;;;;;5010420;28;20785;-77
2022/05/24 00:26:07;;;;;;;13.47;10.97;;;;;;;;;;5012068;28;20578;-77
2022/05/24 00:28:35;;;;;;;10.30;9.30;;;;;;;;;;4995683;28;20443;-78
2022/05/24 00:31:03;;;;;;;11.70;10.53;;;;;;;;;;5016235;28;20443;-76
2022/05/24 00:33:32;;;;;;;10.93;9.80;;;;;;;;;;5020479;28;20430;-79
2022/05/24 00:36:00;;;;;;;10.50;9.40;;;;;;;;;;5029435;28;20493;-77
2022/05/24 00:38:29;;;;;;;9.20;8.30;;;;;;;;;;5029603;28;20479;-77
2022/05/24 00:41:01;;;;;;;10.10;9.20;;;;;;;;;;5012118;28;20434;-78
2022/05/24 00:43:30;;;;;;;8.50;7.70;;;;;;;;;;5030060;28;20450;-77
2022/05/24 00:46:01;;;;;;;9.63;8.73;;;;;;;;;;5000998;28;20502;-77
2022/05/24 00:48:31;;;;;;;8.03;7.23;;;;;;;;;;4994216;28;20936;-77
2022/05/24 00:51:00;;;;;;;8.07;7.27;;;;;;;;;;4995231;28;20441;-77
2022/05/24 00:53:35;;;;;;;8.73;7.80;;;;;;;;;;4998286;28;20432;-77
2022/05/24 00:56:06;;;;;;;8.10;7.33;;;;;;;;;;5019409;28;20442;-77
2022/05/24 00:58:38;;;;;;;8.20;7.40;;;;;;;;;;5029050;28;20461;-76
2022/05/24 01:01:08;;;;;;;7.83;7.13;;;;;;;;;;5028938;28;20413;-77
2022/05/24 01:03:35;;;;;;;7.03;6.33;;;;;;;;;;5029529;28;20409;-75
2022/05/24 01:06:02;;;;;;;8.40;7.70;;;;;;;;;;5029695;28;20468;-77
2022/05/24 01:08:32;;;;;;;7.17;6.47;;;;;;;;;;5018358;28;20459;-78
2022/05/24 01:11:01;;;;;;;6.80;6.20;;;;;;;;;;5011459;28;20457;-78
2022/05/24 01:13:29;;;;;;;6.67;6.07;;;;;;;;;;5012009;28;20782;-77
2022/05/24 01:15:57;;;;;;;8.10;6.77;;;;;;;;;;5015615;28;20454;-77
2022/05/24 01:18:25;;;;;;;7.87;7.17;;;;;;;;;;5019083;28;20507;-76
2022/05/24 01:20:54;;;;;;;7.60;6.40;;;;;;;;;;5028983;28;21042;-76
2022/05/24 01:23:44;;;;;;;8.40;7.57;;;;;;;;;;5021926;28;20455;-77
2022/05/24 01:26:15;;;;;;;7.57;6.90;;;;;;;;;;5008666;28;20493;-76
2022/05/24 01:28:47;;;;;;;8.03;7.33;;;;;;;;;;4992737;28;20796;-77
2022/05/24 01:31:14;;;;;;;8.30;7.60;;;;;;;;;;5010281;28;21122;-77
2022/05/24 01:36:24;;;;;;;8.80;7.87;;;;;;;;;;5003069;28;20459;-77
2022/05/24 01:38:53;;;;;;;7.30;6.60;;;;;;;;;;5001991;28;20438;-79
2022/05/24 01:41:21;;;;;;;7.20;6.60;;;;;;;;;;5007742;28;20764;-77
2022/05/24 01:43:52;;;;;;;6.90;6.30;;;;;;;;;;5032722;28;20848;-77
2022/05/24 01:46:21;;;;;;;7.00;6.30;;;;;;;;;;5032442;28;20481;-78
2022/05/24 01:48:50;;;;;;;6.40;5.90;;;;;;;;;;5015477;28;20486;-76
2022/05/24 01:51:19;;;;;;;7.10;6.40;;;;;;;;;;5015506;28;20472;-78
2022/05/24 01:53:49;;;;;;;7.27;6.57;;;;;;;;;;5019332;28;20923;-77
2022/05/24 01:56:17;;;;;;;6.60;6.00;;;;;;;;;;5014740;28;20474;-77
2022/05/24 01:58:46;;;;;;;6.77;6.17;;;;;;;;;;5015781;28;20442;-75
2022/05/24 02:01:19;;;;;;;6.50;5.90;;;;;;;;;;5018979;28;20435;-76
2022/05/24 02:03:46;;;;;;;6.73;6.13;;;;;;;;;;5023934;28;20423;-77
2022/05/24 02:06:23;;;;;;;8.37;6.30;;;;;;;;;;5032247;28;20499;-76
2022/05/24 02:08:50;;;;;;;7.27;6.57;;;;;;;;;;5032240;28;20981;-77
2022/05/24 02:11:20;;;;;;;6.07;5.50;;;;;;;;;;5032309;28;20815;-77
2022/05/24 02:13:48;;;;;;;6.93;5.40;;;;;;;;;;5032440;28;20438;-77
2022/05/24 02:16:18;;;;;;;6.77;6.17;;;;;;;;;;5019628;28;20466;-77
2022/05/24 02:18:47;;;;;;;6.70;6.10;;;;;;;;;;5014564;28;20453;-76
2022/05/24 02:21:15;;;;;;;6.83;6.07;;;;;;;;;;5017924;28;20466;-78
2022/05/24 02:23:43;;;;;;;7.50;5.80;;;;;;;;;;5018707;28;20421;-76
2022/05/24 02:26:12;;;;;;;6.93;6.33;;;;;;;;;;5031344;28;20493;-77
2022/05/24 02:28:39;;;;;;;7.03;6.10;;;;;;;;;;5013734;28;20477;-76
2022/05/24 02:31:07;;;;;;;8.10;6.37;;;;;;;;;;5032329;28;20434;-78
2022/05/24 02:33:35;;;;;;;7.97;7.17;;;;;;;;;;5032702;28;20438;-77
2022/05/24 02:36:04;;;;;;;8.13;7.40;;;;;;;;;;5027321;28;20481;-76
2022/05/24 02:38:31;;;;;;;9.17;7.77;;;;;;;;;;5013860;28;20418;-78
2022/05/24 02:43:40;;;;;;;9.97;7.70;;;;;;;;;;5001260;28;20439;-76
2022/05/24 02:46:07;;;;;;;7.30;6.60;;;;;;;;;;5017193;28;21119;-78
2022/05/24 02:48:36;;;;;;;13.70;7.63;;;;;;;;;;5030284;28;20434;-77
2022/05/24 02:51:04;;;;;;;12.43;7.27;;;;;;;;;;5013652;28;20446;-79
2022/05/24 02:53:31;;;;;;;12.20;8.07;;;;;;;;;;5023742;28;20486;-78
2022/05/24 02:56:02;;;;;;;7.60;6.57;;;;;;;;;;5011758;28;20972;-76
2022/05/24 02:58:29;;;;;;;7.30;5.97;;;;;;;;;;5011309;28;20450;-77
2022/05/24 03:00:56;;;;;;;5.93;4.83;;;;;;;;;;5016301;28;20414;-78
2022/05/24 03:03:23;;;;;;;9.47;5.37;;;;;;;;;;5017688;28;20445;-77
2022/05/24 03:05:52;;;;;;;6.27;4.63;;;;;;;;;;5012949;28;20482;-79
2022/05/24 03:11:00;;;;;;;10.73;4.67;;;;;;;;;;5010691;28;20463;-77
2022/05/24 03:16:09;;;;;;;6.70;4.43;;;;;;;;;;5009909;28;20466;-76
2022/05/24 03:18:36;;;;;;;5.90;4.33;;;;;;;;;;5013068;28;20443;-76
2022/05/24 03:21:05;;;;;;;7.13;4.40;;;;;;;;;;5012937;28;20476;-77
2022/05/24 03:23:32;;;;;;;9.07;4.97;;;;;;;;;;5015799;28;20459;-78
2022/05/24 03:25:59;;;;;;;9.30;5.00;;;;;;;;;;5017443;28;20866;-77
2022/05/24 03:28:27;;;;;;;6.50;5.13;;;;;;;;;;5012475;28;20789;-77
2022/05/24 03:30:54;;;;;;;7.67;5.03;;;;;;;;;;5010666;28;20442;-77
2022/05/24 03:33:21;;;;;;;6.23;5.03;;;;;;;;;;5011165;28;20928;-76
2022/05/24 03:35:48;;;;;;;6.10;5.50;;;;;;;;;;5011419;28;20447;-75
2022/05/24 03:38:17;;;;;;;9.30;6.13;;;;;;;;;;5010908;28;20446;-77
2022/05/24 03:40:44;;;;;;;6.60;5.70;;;;;;;;;;5012237;28;20433;-75
2022/05/24 03:43:12;;;;;;;5.60;4.40;;;;;;;;;;5013838;28;20442;-80
2022/05/24 03:45:39;;;;;;;5.57;4.27;;;;;;;;;;5014609;28;20473;-76
2022/05/24 03:48:07;;;;;;;6.43;4.27;;;;;;;;;;5017286;28;20788;-78
2022/05/24 03:50:34;;;;;;;6.80;3.93;;;;;;;;;;5024310;28;20850;-76
2022/05/24 03:53:01;;;;;;;5.40;4.23;;;;;;;;;;5026974;28;20440;-78
2022/05/24 03:55:30;;;;;;;6.50;4.23;;;;;;;;;;5010253;28;20466;-77
2022/05/24 03:58:04;;;;;;;9.07;4.70;;;;;;;;;;5010714;28;20462;-77
2022/05/24 04:00:32;;;;;;;7.93;4.10;;;;;;;;;;5010664;28;20451;-78
2022/05/24 04:03:00;;;;;;;6.70;4.00;;;;;;;;;;5011371;28;20463;-76
2022/05/24 04:05:27;;;;;;;5.83;3.70;;;;;;;;;;5012380;28;21025;-77
2022/05/24 04:07:54;;;;;;;8.53;4.73;;;;;;;;;;5013846;28;20450;-77
2022/05/24 04:10:21;;;;;;;7.23;4.43;;;;;;;;;;5016690;28;20434;-78
2022/05/24 04:12:50;;;;;;;6.40;4.20;;;;;;;;;;5013110;28;21079;-77
2022/05/24 04:15:18;;;;;;;6.97;4.00;;;;;;;;;;5009984;28;20447;-79
2022/05/24 04:17:46;;;;;;;4.70;4.00;;;;;;;;;;4992695;28;20465;-76
2022/05/24 04:20:14;;;;;;;6.83;3.90;;;;;;;;;;4992857;28;20983;-77
2022/05/24 04:22:41;;;;;;;8.53;3.80;;;;;;;;;;5010195;28;20942;-76
2022/05/24 04:25:09;;;;;;;5.87;3.27;;;;;;;;;;5010781;28;20450;-77
2022/05/24 04:27:36;;;;;;;4.83;3.80;;;;;;;;;;5012057;28;21110;-78
2022/05/24 04:30:05;;;;;;;6.63;4.20;;;;;;;;;;5012986;28;20438;-77
2022/05/24 04:32:32;;;;;;;8.40;3.80;;;;;;;;;;4998945;28;20944;-78
2022/05/24 04:34:59;;;;;;;8.77;3.73;;;;;;;;;;5013657;28;20442;-75
2022/05/24 04:37:26;;;;;;;4.50;3.43;;;;;;;;;;5009759;28;20997;-77
2022/05/24 04:39:54;;;;;;;7.23;3.67;;;;;;;;;;5009701;28;20451;-79
2022/05/24 04:42:22;;;;;;;4.30;3.00;;;;;;;;;;5009992;28;20434;-77
2022/05/24 04:44:51;;;;;;;8.10;3.10;;;;;;;;;;5010590;28;20460;-78
2022/05/24 04:47:20;;;;;;;7.33;3.60;;;;;;;;;;4992825;28;20501;-79
2022/05/24 04:49:49;;;;;;;5.00;3.50;;;;;;;;;;5011776;28;20453;-77
2022/05/24 04:52:17;;;;;;;6.50;4.07;;;;;;;;;;4994934;28;20558;-77
2022/05/24 04:54:44;;;;;;;11.53;3.80;;;;;;;;;;4998210;28;20439;-77
2022/05/24 04:57:12;;;;;;;6.13;3.70;;;;;;;;;;4997259;28;21361;-77
2022/05/24 04:59:40;;;;;;;4.53;3.33;;;;;;;;;;5009744;28;20444;-79
2022/05/24 05:02:08;;;;;;;4.40;3.47;;;;;;;;;;5009353;28;20437;-78
2022/05/24 05:04:36;;;;;;;6.60;4.03;;;;;;;;;;4992483;28;20438;-77
2022/05/24 05:07:04;;;;;;;4.83;3.23;;;;;;;;;;5009534;28;20499;-76
2022/05/24 05:09:35;;;;;;;5.47;3.50;;;;;;;;;;5013443;28;20460;-77
2022/05/24 05:12:03;;;;;;;4.37;3.20;;;;;;;;;;4998683;28;20441;-76
2022/05/24 05:14:30;;;;;;;7.00;3.57;;;;;;;;;;5015661;28;20449;-77
2022/05/24 05:16:57;;;;;;;5.13;3.77;;;;;;;;;;5019476;28;20558;-76
2022/05/24 05:19:24;;;;;;;7.73;3.93;;;;;;;;;;5019537;28;20445;-77
2022/05/24 05:21:53;;;;;;;6.03;3.70;;;;;;;;;;5012699;28;20982;-77
2022/05/24 05:24:20;;;;;;;8.33;3.90;;;;;;;;;;5012666;28;20441;-77
2022/05/24 05:26:47;;;;;;;10.80;4.00;;;;;;;;;;5013579;28;20836;-78
2022/05/24 05:29:14;;;;;;;5.87;4.10;;;;;;;;;;5013687;28;20437;-78
2022/05/24 05:31:41;;;;;;;7.50;4.40;;;;;;;;;;5013189;28;20458;-76
2022/05/24 05:34:08;;;;;;;8.67;4.70;;;;;;;;;;5015107;28;20450;-77
2022/05/24 05:36:36;;;;;;;8.80;4.00;;;;;;;;;;5015136;28;20474;-76
2022/05/24 05:39:04;;;;;;;5.67;4.20;;;;;;;;;;5018708;28;20435;-78
2022/05/24 05:41:32;;;;;;;6.93;4.63;;;;;;;;;;5019474;28;20438;-77
2022/05/24 05:44:00;;;;;;;8.63;4.20;;;;;;;;;;4995820;28;20449;-77
2022/05/24 05:46:30;;;;;;;9.60;4.20;;;;;;;;;;4995033;28;20497;-78
2022/05/24 05:48:57;;;;;;;8.80;3.83;;;;;;;;;;5013057;28;20900;-77
2022/05/24 05:51:24;;;;;;;5.87;3.83;;;;;;;;;;5013553;28;20444;-77
2022/05/24 05:53:51;;;;;;;7.30;4.60;;;;;;;;;;5011959;28;20436;-77
2022/05/24 05:56:21;;;;;;;4.77;3.90;;;;;;;;;;5013879;28;21071;-77
2022/05/24 05:58:49;;;;;;;9.37;4.93;;;;;;;;;;4997224;28;20932;-75
2022/05/24 06:01:21;;;;;;;8.03;4.67;;;;;;;;;;5017393;28;20779;-75
2022/05/24 06:03:49;;;;;;;10.43;4.47;;;;;;;;;;5001609;28;20437;-77
2022/05/24 06:06:19;;;;;;;7.10;3.47;;;;;;;;;;4996394;28;20495;-77
2022/05/24 06:08:47;;;;;;;7.60;3.00;;;;;;;;;;5012277;28;20788;-78
2022/05/24 06:11:14;;;;;;;3.57;2.63;;;;;;;;;;5012912;28;20456;-77
2022/05/24 06:13:42;;;;;;;5.00;2.87;;;;;;;;;;5013702;28;20432;-78
2022/05/24 06:16:10;;;;;;;5.93;2.60;;;;;;;;;;5012379;28;20800;-74
2022/05/24 06:18:38;;;;;;;6.60;3.03;;;;;;;;;;5013367;28;20463;-75
2022/05/24 06:21:05;;;;;;;7.23;2.77;;;;;;;;;;4993375;28;20471;-75
2022/05/24 06:23:33;;;;;;;3.90;2.87;;;;;;;;;;4992564;28;20493;-76
2022/05/24 06:26:00;;;;;;;7.73;3.60;;;;;;;;;;4993151;28;20455;-78
2022/05/24 06:28:28;;;;;;;6.40;3.50;;;;;;;;;;4995157;28;20443;-75
2022/05/24 06:30:57;;;;;;;5.80;2.80;;;;;;;;;;4992626;28;20479;-75
2022/05/24 06:33:24;;;;;;;2.70;2.30;;;;;;;;;;4992236;28;20937;-77
2022/05/24 06:35:51;;;;;;;4.30;2.50;;;;;;;;;;4992638;28;20447;-74
2022/05/24 06:38:18;;;;;;;5.40;2.60;;;;;;;;;;4992877;28;20435;-75
2022/05/24 06:40:47;;;;;;;4.27;2.20;;;;;;;;;;4992872;28;20447;-76
2022/05/24 06:43:14;;;;;;;4.17;2.50;;;;;;;;;;4994587;28;20453;-77
2022/05/24 06:45:42;;;;;;;2.63;2.10;;;;;;;;;;4995364;28;20520;-75
2022/05/24 06:48:11;;;;;;;2.33;1.70;;;;;;;;;;4998480;28;20476;-75
2022/05/24 06:50:38;;;;;;;3.87;2.07;;;;;;;;;;5001626;28;20939;-78
2022/05/24 06:53:05;;;;;;;3.83;2.10;;;;;;;;;;5001595;28;20432;-76
2022/05/24 06:55:33;;;;;;;3.40;2.00;;;;;;;;;;4991815;28;20469;-75
2022/05/24 06:58:00;;;;;;;3.30;1.60;;;;;;;;;;4992543;28;20466;-75
2022/05/24 07:03:10;;;;;;;2.70;1.53;;;;;;;;;;4992563;28;20628;-75
2022/05/24 07:05:39;;;;;;;2.60;1.70;;;;;;;;;;4993763;28;20452;-76
2022/05/24 07:08:06;;;;;;;3.40;1.83;;;;;;;;;;4994152;28;20497;-79
2022/05/24 07:10:34;;;;;;;2.90;1.80;;;;;;;;;;4997899;28;20450;-76
2022/05/24 07:13:02;;;;;;;1.47;1.37;;;;;;;;;;4999805;28;20446;-81
2022/05/24 07:15:30;;;;;;;3.03;1.90;;;;;;;;;;5009513;28;20447;-76
2022/05/24 07:17:57;;;;;;;2.57;2.20;;;;;;;;;;5010534;28;20465;-78
2022/05/24 07:20:25;;;;;;;4.60;1.60;;;;;;;;;;5004033;28;20476;-79
2022/05/24 07:22:54;;;;;;;6.43;1.80;;;;;;;;;;4983250;28;20456;-80
2022/05/24 07:25:21;;;;;;;2.00;1.33;;;;;;;;;;4972130;28;21078;-79
2022/05/24 07:27:49;;;;;;;2.20;1.30;;;;;;;;;;4972833;28;20503;-79
2022/05/24 07:30:16;;;;;;;2.90;1.50;;;;;;;;;;4973490;28;20770;-79
2022/05/24 07:32:45;;;;;;;6.50;1.90;;;;;;;;;;4976586;28;20635;-84
2022/05/24 07:35:13;;;;;;;4.73;1.70;;;;;;;;;;4978134;28;20448;-80
2022/05/24 07:37:40;;;;;;;3.57;1.50;;;;;;;;;;4988178;28;20476;-78
2022/05/24 07:48:13;;;;;;;3.07;1.50;;;;;;;;;;4984956;28;20488;-76
2022/05/24 07:50:40;;;;;;;3.33;1.60;;;;;;;;;;4973454;28;20448;-80
2022/05/24 07:53:08;;;;;;;2.20;1.40;;;;;;;;;;4973222;28;20934;-76
2022/05/24 07:55:37;;;;;;;5.73;2.13;;;;;;;;;;4975062;28;20821;-79
2022/05/24 07:58:04;;;;;;;3.03;1.73;;;;;;;;;;4977467;28;20443;-78
2022/05/24 08:00:32;;;;;;;2.43;1.53;;;;;;;;;;4987280;28;20444;-78
2022/05/24 08:03:01;;;;;;;2.87;1.63;;;;;;;;;;4990461;28;20479;-78
2022/05/24 08:05:28;;;;;;;1.77;1.33;;;;;;;;;;4990826;28;20440;-79
2022/05/24 08:07:57;;;;;;;3.47;1.50;;;;;;;;;;4991186;28;20495;-78
2022/05/24 08:10:24;;;;;;;4.10;1.57;;;;;;;;;;4985436;28;20463;-77
2022/05/24 08:12:53;;;;;;;2.00;1.10;;;;;;;;;;4971695;28;20803;-80
2022/05/24 08:15:20;;;;;;;1.60;1.03;;;;;;;;;;4973172;28;20539;-79
2022/05/24 08:17:47;;;;;;;3.83;1.43;;;;;;;;;;4974698;28;20491;-79
2022/05/24 08:20:15;;;;;;;4.33;1.60;;;;;;;;;;4986410;28;20459;-78
2022/05/24 08:22:42;;;;;;;2.60;1.20;;;;;;;;;;5012950;28;20454;-77
2022/05/24 08:25:11;;;;;;;1.90;1.20;;;;;;;;;;5010085;28;20923;-79
2022/05/24 08:27:39;;;;;;;3.23;1.30;;;;;;;;;;4992626;28;21175;-80
2022/05/24 08:30:08;;;;;;;4.03;1.70;;;;;;;;;;5010507;28;20533;-81
2022/05/24 08:32:35;;;;;;;1.83;1.10;;;;;;;;;;5010160;28;20439;-79
2022/05/24 08:35:03;;;;;;;1.80;1.20;;;;;;;;;;5010704;28;20459;-79
2022/05/24 08:37:31;;;;;;;4.00;1.30;;;;;;;;;;5011577;28;20463;-75
2022/05/24 08:39:59;;;;;;;3.67;1.33;;;;;;;;;;5012235;28;20447;-77
2022/05/24 08:42:28;;;;;;;2.10;1.10;;;;;;;;;;5016132;28;20437;-76
2022/05/24 08:50:26;;;;;;;3.17;1.37;;;;;;;;;;5028093;28;20466;-76
2022/05/24 08:52:58;;;;;;;2.27;1.17;;;;;;;;;;5022090;28;20538;-76
2022/05/24 08:55:27;;;;;;;4.17;1.50;;;;;;;;;;5010279;28;20446;-76
2022/05/24 08:57:55;;;;;;;2.60;1.63;;;;;;;;;;5010176;28;20475;-75
2022/05/24 09:00:24;;;;;;;1.60;1.20;;;;;;;;;;5011302;28;20454;-80
2022/05/24 09:02:52;;;;;;;3.83;1.70;;;;;;;;;;4994291;28;20442;-76
2022/05/24 09:05:21;;;;;;;2.77;1.37;;;;;;;;;;5015988;28;20534;-75
2022/05/24 09:07:55;;;;;;;5.33;1.63;;;;;;;;;;5015617;28;20487;-77
2022/05/24 09:10:23;;;;;;;1.97;1.20;;;;;;;;;;5009057;28;20449;-76
2022/05/24 09:13:09;;;;;;;3.23;1.43;;;;;;;;;;5009204;28;20443;-76
2022/05/24 09:15:39;;;;;;;2.20;1.50;;;;;;;;;;5009709;28;20439;-77
2022/05/24 09:18:14;;;;;;;3.00;1.43;;;;;;;;;;4993025;28;20531;-76
2022/05/24 09:20:42;;;;;;;1.40;1.23;;;;;;;;;;5009942;28;20584;-75
2022/05/24 09:23:13;;;;;;;2.50;1.43;;;;;;;;;;4993535;28;20948;-78
2022/05/24 09:25:53;;;;;;;1.50;1.00;;;;;;;;;;5011554;28;20454;-74
2022/05/24 09:28:20;;;;;;;5.70;1.80;;;;;;;;;;4998020;28;20486;-76
2022/05/24 09:30:47;;;;;;;1.23;1.13;;;;;;;;;;5018515;28;20441;-78
2022/05/24 09:33:25;;;;;;;1.57;1.13;;;;;;;;;;5028882;28;20427;-77
2022/05/24 09:35:55;;;;;;;2.60;1.47;;;;;;;;;;5011161;28;20442;-79
2022/05/24 09:38:29;;;;;;;3.03;1.23;;;;;;;;;;5029195;28;20533;-78
2022/05/24 09:40:59;;;;;;;2.10;1.50;;;;;;;;;;5012086;28;20442;-77
2022/05/24 09:43:27;;;;;;;2.43;1.20;;;;;;;;;;5018007;28;20478;-77
2022/05/24 09:45:57;;;;;;;3.53;1.47;;;;;;;;;;5011085;28;20450;-76
2022/05/24 09:48:27;;;;;;;4.43;1.33;;;;;;;;;;5011204;28;20491;-76
2022/05/24 09:50:56;;;;;;;3.93;1.60;;;;;;;;;;5015469;28;20439;-76
2022/05/24 09:53:26;;;;;;;4.73;1.47;;;;;;;;;;5014523;28;20442;-82
2022/05/24 09:55:59;;;;;;;2.93;1.30;;;;;;;;;;5012492;28;20447;-84
2022/05/24 09:58:28;;;;;;;3.50;1.73;;;;;;;;;;5012575;28;20443;-81
2022/05/24 10:00:57;;;;;;;3.73;1.50;;;;;;;;;;5012792;28;20439;-77
2022/05/24 10:03:28;;;;;;;2.33;1.50;;;;;;;;;;5013448;28;20442;-78
2022/05/24 10:05:57;;;;;;;2.93;1.40;;;;;;;;;;5013054;28;20466;-77
2022/05/24 10:08:24;;;;;;;3.90;1.43;;;;;;;;;;5014521;28;20849;-80
2022/05/24 10:10:56;;;;;;;3.33;1.67;;;;;;;;;;5015110;28;20442;-78
2022/05/24 10:13:30;;;;;;;1.70;1.30;;;;;;;;;;5018749;28;20442;-78
2022/05/24 10:16:06;;;;;;;3.47;1.60;;;;;;;;;;5018746;28;20465;-77
2022/05/24 10:18:40;;;;;;;2.00;1.33;;;;;;;;;;5012172;28;20813;-79
2022/05/24 10:21:13;;;;;;;4.53;1.30;;;;;;;;;;5012036;28;20561;-78
2022/05/24 10:23:45;;;;;;;1.60;1.27;;;;;;;;;;5011527;28;20439;-77
2022/05/24 10:26:17;;;;;;;1.80;1.37;;;;;;;;;;4995013;28;20789;-76
2022/05/24 10:28:50;;;;;;;3.27;1.53;;;;;;;;;;5012598;28;20573;-76
2022/05/24 10:31:27;;;;;;;2.17;1.30;;;;;;;;;;5014102;28;20962;-75
2022/05/24 10:39:34;;;;;;;3.17;1.60;;;;;;;;;;5021132;28;21200;-76
2022/05/24 10:42:07;;;;;;;1.87;1.50;;;;;;;;;;5031552;28;20867;-78
2022/05/24 10:44:37;;;;;;;2.73;1.50;;;;;;;;;;5031338;28;20448;-76
2022/05/24 10:47:07;;;;;;;1.77;1.30;;;;;;;;;;5031590;28;20464;-76
2022/05/24 10:49:40;;;;;;;3.20;1.50;;;;;;;;;;5027564;28;20439;-76
2022/05/24 10:52:10;;;;;;;1.50;1.10;;;;;;;;;;5012811;28;20550;-78
2022/05/24 10:54:42;;;;;;;1.40;1.03;;;;;;;;;;5013642;28;20438;-76
2022/05/24 10:57:11;;;;;;;3.20;1.40;;;;;;;;;;5014032;28;20446;-80
2022/05/24 10:59:45;;;;;;;5.30;1.50;;;;;;;;;;5017910;28;20789;-79
2022/05/24 11:02:17;;;;;;;2.00;1.43;;;;;;;;;;5021102;28;20434;-76
2022/05/24 11:04:49;;;;;;;1.70;1.20;;;;;;;;;;5013404;28;20451;-78
2022/05/24 11:07:18;;;;;;;2.83;1.37;;;;;;;;;;5012433;28;20826;-77
2022/05/24 11:09:48;;;;;;;1.50;1.00;;;;;;;;;;5031452;28;20438;-77
2022/05/24 11:12:20;;;;;;;1.40;1.00;;;;;;;;;;5014520;28;20449;-77
2022/05/24 11:14:50;;;;;;;2.30;1.33;;;;;;;;;;5020088;28;20467;-78
2022/05/24 11:17:18;;;;;;;1.40;1.20;;;;;;;;;;4996298;28;20529;-78
2022/05/24 11:19:49;;;;;;;4.10;1.50;;;;;;;;;;5012789;28;20447;-76
2022/05/24 11:22:21;;;;;;;1.47;1.20;;;;;;;;;;5014056;28;20987;-76
2022/05/24 11:24:50;;;;;;;1.70;1.27;;;;;;;;;;4995841;28;20442;-79
2022/05/24 11:27:18;;;;;;;2.50;1.00;;;;;;;;;;5006588;28;20459;-78
2022/05/24 11:29:47;;;;;;;3.30;1.20;;;;;;;;;;5006937;28;20943;-76
2022/05/24 11:32:18;;;;;;;1.93;1.40;;;;;;;;;;5007149;28;20451;-78
2022/05/24 11:34:56;;;;;;;2.63;1.20;;;;;;;;;;5007052;28;20443;-76
2022/05/24 11:37:25;;;;;;;2.97;1.40;;;;;;;;;;5007497;28;20482;-77
2022/05/24 11:39:53;;;;;;;1.47;1.20;;;;;;;;;;4994150;28;20436;-77
2022/05/24 11:42:35;;;;;;;3.07;1.40;;;;;;;;;;5013171;28;20442;-78
2022/05/24 11:45:26;;;;;;;1.43;1.27;;;;;;;;;;5006688;28;20450;-79
2022/05/24 11:47:57;;;;;;;7.60;1.43;;;;;;;;;;4992965;28;20486;-79
2022/05/24 11:50:39;;;;;;;1.70;1.20;;;;;;;;;;4991389;28;20558;-76
2022/05/24 11:53:09;;;;;;;2.33;1.10;;;;;;;;;;4994649;28;21050;-77
2022/05/24 11:55:40;;;;;;;1.83;1.20;;;;;;;;;;4991677;28;20973;-76
2022/05/24 11:58:21;;;;;;;3.23;0.93;;;;;;;;;;5010628;28;20447;-78
2022/05/24 12:00:56;;;;;;;1.97;1.10;;;;;;;;;;5011676;28;20959;-78
2022/05/24 12:09:05;;;;;;;1.40;1.10;;;;;;;;;;5028308;28;20579;-77
2022/05/24 12:11:33;;;;;;;3.30;1.57;;;;;;;;;;5029769;28;20468;-77
2022/05/24 12:14:14;;;;;;;1.40;1.00;;;;;;;;;;5012579;28;20454;-79
2022/05/24 12:16:43;;;;;;;1.87;1.20;;;;;;;;;;5030354;28;20473;-79
2022/05/24 12:19:11;;;;;;;2.33;1.07;;;;;;;;;;5019466;28;20550;-80
2022/05/24 12:21:39;;;;;;;1.20;1.10;;;;;;;;;;4994732;28;20455;-81
2022/05/24 12:24:21;;;;;;;1.37;1.20;;;;;;;;;;5012068;28;20451;-76
2022/05/24 12:27:03;;;;;;;1.40;1.03;;;;;;;;;;5015166;28;20458;-79
2022/05/24 12:29:31;;;;;;;1.50;1.10;;;;;;;;;;5015672;28;20485;-76
2022/05/24 12:32:03;;;;;;;5.43;1.10;;;;;;;;;;5009776;28;20461;-77
2022/05/24 12:34:32;;;;;;;1.70;1.03;;;;;;;;;;5009762;28;20443;-77
2022/05/24 12:37:00;;;;;;;2.43;1.37;;;;;;;;;;5009925;28;20477;-77
2022/05/24 12:39:27;;;;;;;1.40;1.03;;;;;;;;;;5010944;28;20449;-78
2022/05/24 12:41:57;;;;;;;2.17;1.00;;;;;;;;;;5010381;28;20451;-79
2022/05/24 12:44:25;;;;;;;4.10;1.50;;;;;;;;;;5012627;28;20442;-77
2022/05/24 12:46:55;;;;;;;1.83;1.20;;;;;;;;;;5015771;28;20462;-78
2022/05/24 12:49:23;;;;;;;1.90;1.13;;;;;;;;;;5017302;28;20490;-77
2022/05/24 12:51:54;;;;;;;1.40;1.07;;;;;;;;;;5000772;28;20796;-77
2022/05/24 12:54:28;;;;;;;2.57;1.30;;;;;;;;;;5010766;28;20443;-77
2022/05/24 12:56:56;;;;;;;1.40;1.10;;;;;;;;;;4996162;28;20461;-79
2022/05/24 12:59:30;;;;;;;2.57;1.40;;;;;;;;;;5011346;28;20445;-82
2022/05/24 13:01:58;;;;;;;1.77;1.30;;;;;;;;;;4993305;28;20450;-77
2022/05/24 13:04:27;;;;;;;2.50;1.40;;;;;;;;;;5010559;28;20459;-78
2022/05/24 13:06:56;;;;;;;1.73;1.17;;;;;;;;;;5011947;28;20955;-80
2022/05/24 13:09:24;;;;;;;1.60;1.10;;;;;;;;;;5011723;28;20489;-77
2022/05/24 13:11:53;;;;;;;1.20;1.10;;;;;;;;;;5015718;28;20437;-77
2022/05/24 13:14:30;;;;;;;1.33;1.20;;;;;;;;;;5016101;28;20439;-78
2022/05/24 13:16:58;;;;;;;1.33;1.10;;;;;;;;;;5025047;28;20454;-83
2022/05/24 13:19:25;;;;;;;2.50;1.00;;;;;;;;;;5007681;28;20782;-80
2022/05/24 13:21:53;;;;;;;1.97;1.20;;;;;;;;;;5007238;28;20483;-82
2022/05/24 13:24:21;;;;;;;1.93;1.23;;;;;;;;;;5005880;28;20451;-77
2022/05/24 13:27:03;;;;;;;1.50;1.40;;;;;;;;;;5007500;28;20483;-79
2022/05/24 13:33:32;;;;;;;1.23;1.10;;;;;;;;;;4997705;28;21006;-79
2022/05/24 13:35:00;;;;;;;1.80;1.27;;;;;;;;;;5031052;28;20998;-82
2022/05/24 13:37:28;;;;;;;1.63;1.30;;;;;;;;;;5032688;28;20458;-79
2022/05/24 13:39:56;;;;;;;2.33;1.17;;;;;;;;;;5033142;28;20442;-78
2022/05/24 13:42:25;;;;;;;2.13;1.10;;;;;;;;;;5033464;28;20920;-83
2022/05/24 13:45:08;;;;;;;3.90;1.37;;;;;;;;;;5011339;28;20466;-82
2022/05/24 13:47:37;;;;;;;2.50;1.60;;;;;;;;;;4999665;28;20971;-82
2022/05/24 13:50:18;;;;;;;3.13;1.60;;;;;;;;;;4997510;28;20493;-79
2022/05/24 13:52:54;;;;;;;1.53;1.20;;;;;;;;;;5018932;28;20533;-79
2022/05/24 13:55:23;;;;;;;2.93;1.80;;;;;;;;;;5001933;28;20794;-80
2022/05/24 13:57:54;;;;;;;3.80;1.87;;;;;;;;;;4992877;28;20459;-81
2022/05/24 14:00:26;;;;;;;3.00;1.63;;;;;;;;;;5003713;28;20447;-83
2022/05/24 14:02:56;;;;;;;2.60;1.87;;;;;;;;;;5012983;28;20530;-77
2022/05/24 14:05:25;;;;;;;2.10;1.27;;;;;;;;;;5013513;28;20443;-83
2022/05/24 14:07:52;;;;;;;3.80;1.50;;;;;;;;;;5012121;28;20479;-81
2022/05/24 14:10:20;;;;;;;4.00;1.60;;;;;;;;;;5014585;28;20486;-84
2022/05/24 14:12:47;;;;;;;3.33;1.40;;;;;;;;;;5014214;28;20792;-82
2022/05/24 14:15:14;;;;;;;2.07;1.47;;;;;;;;;;5018406;28;20434;-78
2022/05/24 14:17:41;;;;;;;3.03;1.57;;;;;;;;;;5019054;28;20556;-87
2022/05/24 14:20:11;;;;;;;4.03;1.67;;;;;;;;;;5029968;28;20977;-81
2022/05/24 14:22:38;;;;;;;2.90;1.47;;;;;;;;;;5031784;28;20450;-84
2022/05/24 14:25:06;;;;;;;3.37;2.07;;;;;;;;;;5032151;28;20442;-79
2022/05/24 14:27:34;;;;;;;5.97;1.87;;;;;;;;;;5032291;28;20477;-86
2022/05/24 14:30:01;;;;;;;4.30;1.83;;;;;;;;;;5030465;28;20494;-81
2022/05/24 14:32:28;;;;;;;4.40;1.70;;;;;;;;;;5016695;28;20448;-80
2022/05/24 14:34:55;;;;;;;5.10;1.73;;;;;;;;;;5018536;28;20482;-81
2022/05/24 14:37:24;;;;;;;2.87;1.50;;;;;;;;;;5014202;28;20455;-78
2022/05/24 14:39:51;;;;;;;2.53;1.40;;;;;;;;;;5011307;28;20451;-77
2022/05/24 14:42:18;;;;;;;2.10;1.30;;;;;;;;;;5012031;28;20443;-75
2022/05/24 14:44:45;;;;;;;1.50;1.20;;;;;;;;;;5012167;28;20808;-75
2022/05/24 14:47:14;;;;;;;4.00;1.67;;;;;;;;;;5012026;28;20471;-76
2022/05/24 14:49:41;;;;;;;1.70;1.43;;;;;;;;;;5012971;28;20525;-77
2022/05/24 14:52:09;;;;;;;2.40;1.50;;;;;;;;;;4996994;28;20439;-76
2022/05/24 14:54:40;;;;;;;3.37;1.40;;;;;;;;;;5015527;28;20442;-76
2022/05/24 14:57:07;;;;;;;2.83;1.37;;;;;;;;;;5017986;28;20448;-76
2022/05/24 14:59:37;;;;;;;1.80;1.30;;;;;;;;;;5015090;28;20427;-76
2022/05/24 15:02:04;;;;;;;2.87;1.40;;;;;;;;;;5011809;28;20500;-76
2022/05/24 15:04:32;;;;;;;2.33;1.40;;;;;;;;;;5011522;28;21030;-78
2022/05/24 15:15:20;;;;;;;2.40;1.70;;;;;;;;;;5011625;28;20521;-76
2022/05/24 15:17:51;;;;;;;2.57;1.70;;;;;;;;;;5000223;28;20447;-76
2022/05/24 15:20:20;;;;;;;3.10;1.57;;;;;;;;;;5017389;28;20802;-77
2022/05/24 15:22:48;;;;;;;2.63;1.50;;;;;;;;;;4995974;28;20481;-76
2022/05/24 15:25:20;;;;;;;2.70;1.50;;;;;;;;;;4993842;28;20466;-77
2022/05/24 15:27:50;;;;;;;2.30;1.50;;;;;;;;;;5010970;28;20538;-78
2022/05/24 15:30:18;;;;;;;1.80;1.20;;;;;;;;;;5011467;28;20486;-77
2022/05/24 15:32:46;;;;;;;2.67;1.50;;;;;;;;;;5011180;28;20951;-75
2022/05/24 15:35:13;;;;;;;3.47;1.40;;;;;;;;;;4994836;28;20526;-78
2022/05/24 15:37:40;;;;;;;1.30;1.20;;;;;;;;;;5013013;28;20469;-82
2022/05/24 15:40:08;;;;;;;1.30;1.20;;;;;;;;;;5014800;28;20446;-78
2022/05/24 15:42:37;;;;;;;2.40;1.23;;;;;;;;;;5017251;28;20445;-76